sensor_id;sensor_type;location;lat;lon;timestamp;P1;P2;P0
80289;PMS7003;69592;44.804;-0.550;2024-03-08T00:00:51;4.00;2.00;1.25
80289;PMS7003;69592;44.804;-0.550;2024-03-08T00:03:16;8.50;4.50;3.25
80289;PMS7003;69592;44.804;-0.550;2024-03-08T00:05:41;2.25;2.25;2.00
80289;PMS7003;69592;44.804;-0.550;2024-03-08T00:08:07;3.25;3.25;2.00
80289;PMS7003;69592;44.804;-0.550;2024-03-08T00:10:35;3.25;3.25;3.25
80289;PMS7003;69592;44.804;-0.550;2024-03-08T00:13:00;3.25;3.25;2.00
80289;PMS7003;69592;44.804;-0.550;2024-03-08T00:15:25;4.00;2.75;2.00
80289;PMS7003;69592;44.804;-0.550;2024-03-08T00:17:50;2.75;2.75;2.75
80289;PMS7003;69592;44.804;-0.550;2024-03-08T00:20:16;5.25;4.25;3.25
80289;PMS7003;69592;44.804;-0.550;2024-03-08T00:22:42;5.50;5.00;3.00
80289;PMS7003;69592;44.804;-0.550;2024-03-08T00:25:08;6.00;4.75;3.25
80289;PMS7003;69592;44.804;-0.550;2024-03-08T00:27:33;4.75;3.25;2.00
80289;PMS7003;69592;44.804;-0.550;2024-03-08T00:29:59;3.25;3.25;3.25
80289;PMS7003;69592;44.804;-0.550;2024-03-08T00:32:25;2.00;2.00;2.00
80289;PMS7003;69592;44.804;-0.550;2024-03-08T00:34:50;3.50;3.50;2.00
80289;PMS7003;69592;44.804;-0.550;2024-03-08T00:37:19;2.00;2.00;1.25
80289;PMS7003;69592;44.804;-0.550;2024-03-08T00:39:44;4.50;3.50;3.25
80289;PMS7003;69592;44.804;-0.550;2024-03-08T00:42:09;5.00;2.25;2.00
80289;PMS7003;69592;44.804;-0.550;2024-03-08T00:44:35;5.00;5.00;3.25
80289;PMS7003;69592;44.804;-0.550;2024-03-08T00:47:00;0.75;0.75;0.00
80289;PMS7003;69592;44.804;-0.550;2024-03-08T00:49:28;2.00;2.00;2.00
80289;PMS7003;69592;44.804;-0.550;2024-03-08T00:51:53;5.00;3.25;2.00
80289;PMS7003;69592;44.804;-0.550;2024-03-08T00:54:19;3.00;3.00;2.00
80289;PMS7003;69592;44.804;-0.550;2024-03-08T00:56:44;2.25;2.25;2.25
80289;PMS7003;69592;44.804;-0.550;2024-03-08T00:59:10;2.00;2.00;2.00
80289;PMS7003;69592;44.804;-0.550;2024-03-08T01:01:36;2.00;2.00;1.50
80289;PMS7003;69592;44.804;-0.550;2024-03-08T01:04:01;4.75;4.75;3.25
80289;PMS7003;69592;44.804;-0.550;2024-03-08T01:06:27;3.25;3.25;2.50
80289;PMS7003;69592;44.804;-0.550;2024-03-08T01:08:52;2.00;2.00;2.00
80289;PMS7003;69592;44.804;-0.550;2024-03-08T01:11:18;5.00;5.00;3.00
80289;PMS7003;69592;44.804;-0.550;2024-03-08T01:13:44;3.25;2.00;1.00
80289;PMS7003;69592;44.804;-0.550;2024-03-08T01:16:12;5.75;4.25;2.00
80289;PMS7003;69592;44.804;-0.550;2024-03-08T01:18:37;3.50;2.75;2.00
80289;PMS7003;69592;44.804;-0.550;2024-03-08T01:21:02;4.50;2.50;2.00
80289;PMS7003;69592;44.804;-0.550;2024-03-08T01:23:28;3.50;3.50;2.75
80289;PMS7003;69592;44.804;-0.550;2024-03-08T01:25:54;3.75;3.75;2.50
80289;PMS7003;69592;44.804;-0.550;2024-03-08T01:28:22;4.75;4.75;3.25
80289;PMS7003;69592;44.804;-0.550;2024-03-08T01:30:48;3.25;3.25;2.75
80289;PMS7003;69592;44.804;-0.550;2024-03-08T01:33:15;4.25;4.25;3.00
80289;PMS7003;69592;44.804;-0.550;2024-03-08T01:35:40;3.25;3.25;2.00
80289;PMS7003;69592;44.804;-0.550;2024-03-08T01:38:06;3.25;3.25;2.50
80289;PMS7003;69592;44.804;-0.550;2024-03-08T01:40:31;2.00;2.00;1.75
80289;PMS7003;69592;44.804;-0.550;2024-03-08T01:42:57;2.00;2.00;1.75
80289;PMS7003;69592;44.804;-0.550;2024-03-08T01:45:22;2.25;2.25;1.50
80289;PMS7003;69592;44.804;-0.550;2024-03-08T01:47:47;3.00;2.00;2.00
80289;PMS7003;69592;44.804;-0.550;2024-03-08T01:50:13;3.25;3.25;2.50
80289;PMS7003;69592;44.804;-0.550;2024-03-08T01:52:39;3.50;2.00;2.00
80289;PMS7003;69592;44.804;-0.550;2024-03-08T01:55:04;3.00;3.00;2.00
80289;PMS7003;69592;44.804;-0.550;2024-03-08T01:57:32;3.75;1.25;1.25
80289;PMS7003;69592;44.804;-0.550;2024-03-08T02:00:00;2.75;2.75;2.25
80289;PMS7003;69592;44.804;-0.550;2024-03-08T02:02:33;5.00;3.25;2.75
80289;PMS7003;69592;44.804;-0.550;2024-03-08T02:05:00;1.25;1.25;1.00
80289;PMS7003;69592;44.804;-0.550;2024-03-08T02:07:25;2.50;2.50;2.00
80289;PMS7003;69592;44.804;-0.550;2024-03-08T02:09:51;4.00;2.00;2.00
80289;PMS7003;69592;44.804;-0.550;2024-03-08T02:12:16;2.00;2.00;1.00
80289;PMS7003;69592;44.804;-0.550;2024-03-08T02:14:41;5.00;2.50;2.00
80289;PMS7003;69592;44.804;-0.550;2024-03-08T02:17:08;3.00;3.00;2.00
80289;PMS7003;69592;44.804;-0.550;2024-03-08T02:19:33;3.25;3.25;2.00
80289;PMS7003;69592;44.804;-0.550;2024-03-08T02:22:04;3.25;3.25;3.00
80289;PMS7003;69592;44.804;-0.550;2024-03-08T02:24:29;6.50;4.75;4.50
80289;PMS7003;69592;44.804;-0.550;2024-03-08T02:26:55;3.25;2.00;1.50
80289;PMS7003;69592;44.804;-0.550;2024-03-08T02:29:21;3.25;2.50;2.00
80289;PMS7003;69592;44.804;-0.550;2024-03-08T02:31:47;4.00;2.00;2.00
80289;PMS7003;69592;44.804;-0.550;2024-03-08T02:34:12;2.75;2.75;2.00
80289;PMS7003;69592;44.804;-0.550;2024-03-08T02:36:38;6.50;5.00;3.25
80289;PMS7003;69592;44.804;-0.550;2024-03-08T02:39:03;3.25;3.25;2.00
80289;PMS7003;69592;44.804;-0.550;2024-03-08T02:41:30;1.00;1.00;1.00
80289;PMS7003;69592;44.804;-0.550;2024-03-08T02:43:55;6.00;4.50;3.75
80289;PMS7003;69592;44.804;-0.550;2024-03-08T02:46:20;2.50;1.50;1.50
80289;PMS7003;69592;44.804;-0.550;2024-03-08T02:48:46;5.00;4.00;2.00
80289;PMS7003;69592;44.804;-0.550;2024-03-08T02:51:11;2.00;2.00;2.00
80289;PMS7003;69592;44.804;-0.550;2024-03-08T02:53:38;2.50;2.50;2.00
80289;PMS7003;69592;44.804;-0.550;2024-03-08T02:56:03;5.25;2.50;2.25
80289;PMS7003;69592;44.804;-0.550;2024-03-08T02:58:29;2.00;2.00;2.00
80289;PMS7003;69592;44.804;-0.550;2024-03-08T03:00:55;2.00;2.00;1.50
80289;PMS7003;69592;44.804;-0.550;2024-03-08T03:03:22;3.25;3.25;2.50
80289;PMS7003;69592;44.804;-0.550;2024-03-08T03:05:47;3.25;3.25;2.50
80289;PMS7003;69592;44.804;-0.550;2024-03-08T03:08:12;2.50;2.50;2.25
80289;PMS7003;69592;44.804;-0.550;2024-03-08T03:10:38;3.75;3.75;2.00
80289;PMS7003;69592;44.804;-0.550;2024-03-08T03:13:03;2.25;2.25;2.00
80289;PMS7003;69592;44.804;-0.550;2024-03-08T03:15:32;3.00;3.00;2.00
80289;PMS7003;69592;44.804;-0.550;2024-03-08T03:17:59;5.00;3.25;2.00
80289;PMS7003;69592;44.804;-0.550;2024-03-08T03:20:24;4.50;4.50;3.25
80289;PMS7003;69592;44.804;-0.550;2024-03-08T03:22:51;2.50;2.50;2.00
80289;PMS7003;69592;44.804;-0.550;2024-03-08T03:25:20;2.00;2.00;2.00
80289;PMS7003;69592;44.804;-0.550;2024-03-08T03:27:50;3.25;3.25;3.25
80289;PMS7003;69592;44.804;-0.550;2024-03-08T03:30:15;2.75;2.75;2.50
80289;PMS7003;69592;44.804;-0.550;2024-03-08T03:32:47;3.25;3.25;2.00
80289;PMS7003;69592;44.804;-0.550;2024-03-08T03:35:13;2.00;2.00;2.00
80289;PMS7003;69592;44.804;-0.550;2024-03-08T03:37:39;2.75;1.75;1.50
80289;PMS7003;69592;44.804;-0.550;2024-03-08T03:40:05;6.00;5.00;4.25
80289;PMS7003;69592;44.804;-0.550;2024-03-08T03:42:30;3.50;2.25;2.00
80289;PMS7003;69592;44.804;-0.550;2024-03-08T03:44:56;1.75;1.75;1.00
80289;PMS7003;69592;44.804;-0.550;2024-03-08T03:47:22;3.25;3.25;2.75
80289;PMS7003;69592;44.804;-0.550;2024-03-08T03:49:47;5.75;3.25;2.75
80289;PMS7003;69592;44.804;-0.550;2024-03-08T03:52:13;3.25;3.25;3.25
80289;PMS7003;69592;44.804;-0.550;2024-03-08T03:54:38;0.25;0.25;0.00
80289;PMS7003;69592;44.804;-0.550;2024-03-08T03:57:03;5.50;5.50;5.00
80289;PMS7003;69592;44.804;-0.550;2024-03-08T03:59:29;8.50;8.50;5.75
80289;PMS7003;69592;44.804;-0.550;2024-03-08T04:01:54;2.75;2.50;2.50
80289;PMS7003;69592;44.804;-0.550;2024-03-08T04:04:19;5.50;4.00;2.75
80289;PMS7003;69592;44.804;-0.550;2024-03-08T04:06:45;3.25;3.25;2.25
80289;PMS7003;69592;44.804;-0.550;2024-03-08T04:09:10;4.00;2.50;2.00
80289;PMS7003;69592;44.804;-0.550;2024-03-08T04:11:36;3.75;3.75;2.00
80289;PMS7003;69592;44.804;-0.550;2024-03-08T04:14:01;4.00;4.00;3.75
80289;PMS7003;69592;44.804;-0.550;2024-03-08T04:16:26;4.00;4.00;3.75
80289;PMS7003;69592;44.804;-0.550;2024-03-08T04:18:52;4.75;4.00;2.00
80289;PMS7003;69592;44.804;-0.550;2024-03-08T04:21:17;4.75;4.00;3.75
80289;PMS7003;69592;44.804;-0.550;2024-03-08T04:23:44;4.00;4.00;2.00
80289;PMS7003;69592;44.804;-0.550;2024-03-08T04:26:10;4.50;4.50;4.00
80289;PMS7003;69592;44.804;-0.550;2024-03-08T04:28:35;9.25;8.00;5.50
80289;PMS7003;69592;44.804;-0.550;2024-03-08T04:31:02;8.75;5.00;4.00
80289;PMS7003;69592;44.804;-0.550;2024-03-08T04:33:27;4.50;4.50;2.75
80289;PMS7003;69592;44.804;-0.550;2024-03-08T04:35:53;3.25;3.25;2.00
80289;PMS7003;69592;44.804;-0.550;2024-03-08T04:38:18;4.00;4.00;2.00
80289;PMS7003;69592;44.804;-0.550;2024-03-08T04:40:43;3.75;3.75;3.75
80289;PMS7003;69592;44.804;-0.550;2024-03-08T04:43:09;4.25;4.25;4.00
80289;PMS7003;69592;44.804;-0.550;2024-03-08T04:45:35;5.00;4.00;2.00
80289;PMS7003;69592;44.804;-0.550;2024-03-08T04:48:00;3.25;2.00;1.75
80289;PMS7003;69592;44.804;-0.550;2024-03-08T04:50:26;4.00;4.00;2.25
80289;PMS7003;69592;44.804;-0.550;2024-03-08T04:52:54;4.50;4.50;3.75
80289;PMS7003;69592;44.804;-0.550;2024-03-08T04:55:19;4.75;4.75;3.50
80289;PMS7003;69592;44.804;-0.550;2024-03-08T04:57:46;6.00;6.00;5.00
80289;PMS7003;69592;44.804;-0.550;2024-03-08T05:00:11;4.00;4.00;4.00
80289;PMS7003;69592;44.804;-0.550;2024-03-08T05:02:37;3.75;3.75;2.25
80289;PMS7003;69592;44.804;-0.550;2024-03-08T05:05:04;8.50;4.50;2.00
80289;PMS7003;69592;44.804;-0.550;2024-03-08T05:07:30;4.50;4.50;4.00
80289;PMS7003;69592;44.804;-0.550;2024-03-08T05:09:55;9.25;4.25;4.00
80289;PMS7003;69592;44.804;-0.550;2024-03-08T05:12:20;4.00;4.00;3.75
80289;PMS7003;69592;44.804;-0.550;2024-03-08T05:14:47;7.25;4.75;4.00
80289;PMS7003;69592;44.804;-0.550;2024-03-08T05:17:14;4.00;4.00;2.25
80289;PMS7003;69592;44.804;-0.550;2024-03-08T05:19:40;5.25;4.50;4.25
80289;PMS7003;69592;44.804;-0.550;2024-03-08T05:22:05;5.75;5.75;4.75
80289;PMS7003;69592;44.804;-0.550;2024-03-08T05:24:30;13.25;13.25;12.00
80289;PMS7003;69592;44.804;-0.550;2024-03-08T05:26:55;5.25;4.75;4.00
80289;PMS7003;69592;44.804;-0.550;2024-03-08T05:29:20;8.50;6.50;5.00
80289;PMS7003;69592;44.804;-0.550;2024-03-08T05:34:15;4.50;4.50;4.00
80289;PMS7003;69592;44.804;-0.550;2024-03-08T05:36:40;6.00;4.50;3.25
80289;PMS7003;69592;44.804;-0.550;2024-03-08T05:39:08;4.00;4.00;4.00
80289;PMS7003;69592;44.804;-0.550;2024-03-08T05:41:33;4.75;4.50;4.00
80289;PMS7003;69592;44.804;-0.550;2024-03-08T05:43:59;6.00;6.00;4.50
80289;PMS7003;69592;44.804;-0.550;2024-03-08T05:46:24;5.75;5.00;4.00
80289;PMS7003;69592;44.804;-0.550;2024-03-08T05:48:49;6.00;5.75;4.75
80289;PMS7003;69592;44.804;-0.550;2024-03-08T05:51:14;4.00;4.00;2.25
80289;PMS7003;69592;44.804;-0.550;2024-03-08T05:53:40;8.00;5.00;4.25
80289;PMS7003;69592;44.804;-0.550;2024-03-08T05:56:05;4.25;4.25;4.00
80289;PMS7003;69592;44.804;-0.550;2024-03-08T05:58:30;5.00;5.00;4.00
80289;PMS7003;69592;44.804;-0.550;2024-03-08T06:00:56;8.00;8.00;6.00
80289;PMS7003;69592;44.804;-0.550;2024-03-08T06:03:22;11.25;9.50;8.75
80289;PMS7003;69592;44.804;-0.550;2024-03-08T06:05:48;9.25;9.25;7.25
80289;PMS7003;69592;44.804;-0.550;2024-03-08T06:08:13;10.00;9.25;6.00
80289;PMS7003;69592;44.804;-0.550;2024-03-08T06:10:39;5.00;5.00;4.75
80289;PMS7003;69592;44.804;-0.550;2024-03-08T06:13:05;6.75;6.25;5.75
80289;PMS7003;69592;44.804;-0.550;2024-03-08T06:15:30;6.00;6.00;5.00
80289;PMS7003;69592;44.804;-0.550;2024-03-08T06:17:55;4.75;4.75;4.25
80289;PMS7003;69592;44.804;-0.550;2024-03-08T06:20:20;7.25;5.75;5.00
80289;PMS7003;69592;44.804;-0.550;2024-03-08T06:22:51;8.75;8.75;6.00
80289;PMS7003;69592;44.804;-0.550;2024-03-08T06:25:16;6.00;6.00;5.00
80289;PMS7003;69592;44.804;-0.550;2024-03-08T06:27:42;6.00;6.00;5.00
80289;PMS7003;69592;44.804;-0.550;2024-03-08T06:30:11;8.25;8.00;7.00
80289;PMS7003;69592;44.804;-0.550;2024-03-08T06:32:37;9.00;9.00;8.00
80289;PMS7003;69592;44.804;-0.550;2024-03-08T06:35:03;6.00;6.00;5.25
80289;PMS7003;69592;44.804;-0.550;2024-03-08T06:37:31;12.00;9.50;7.00
80289;PMS7003;69592;44.804;-0.550;2024-03-08T06:39:56;10.00;8.50;8.00
80289;PMS7003;69592;44.804;-0.550;2024-03-08T06:42:22;11.50;9.00;7.00
80289;PMS7003;69592;44.804;-0.550;2024-03-08T06:44:47;8.50;7.50;6.50
80289;PMS7003;69592;44.804;-0.550;2024-03-08T06:47:15;9.50;8.75;8.00
80289;PMS7003;69592;44.804;-0.550;2024-03-08T06:49:43;9.50;9.50;7.00
80289;PMS7003;69592;44.804;-0.550;2024-03-08T06:52:09;6.00;6.00;5.25
80289;PMS7003;69592;44.804;-0.550;2024-03-08T06:54:35;7.00;5.00;4.50
80289;PMS7003;69592;44.804;-0.550;2024-03-08T06:57:03;9.00;8.00;5.75
80289;PMS7003;69592;44.804;-0.550;2024-03-08T06:59:29;5.50;5.50;4.75
80289;PMS7003;69592;44.804;-0.550;2024-03-08T07:01:55;9.25;9.25;7.75
80289;PMS7003;69592;44.804;-0.550;2024-03-08T07:04:20;8.00;6.50;5.00
80289;PMS7003;69592;44.804;-0.550;2024-03-08T07:06:46;6.00;6.00;5.00
80289;PMS7003;69592;44.804;-0.550;2024-03-08T07:09:15;5.00;5.00;4.00
80289;PMS7003;69592;44.804;-0.550;2024-03-08T07:11:41;5.00;5.00;5.00
80289;PMS7003;69592;44.804;-0.550;2024-03-08T07:14:06;5.00;5.00;4.75
80289;PMS7003;69592;44.804;-0.550;2024-03-08T07:16:32;4.75;4.75;4.00
80289;PMS7003;69592;44.804;-0.550;2024-03-08T07:18:57;6.00;6.00;6.00
80289;PMS7003;69592;44.804;-0.550;2024-03-08T07:21:23;5.50;5.50;4.50
80289;PMS7003;69592;44.804;-0.550;2024-03-08T07:23:49;15.75;15.75;13.00
80289;PMS7003;69592;44.804;-0.550;2024-03-08T07:26:26;18.50;18.50;15.50
80289;PMS7003;69592;44.804;-0.550;2024-03-08T07:28:52;23.25;20.75;16.75
80289;PMS7003;69592;44.804;-0.550;2024-03-08T07:31:19;13.50;11.25;8.50
80289;PMS7003;69592;44.804;-0.550;2024-03-08T07:34:00;8.50;8.50;6.00
80289;PMS7003;69592;44.804;-0.550;2024-03-08T07:36:25;12.00;12.00;10.25
80289;PMS7003;69592;44.804;-0.550;2024-03-08T07:38:50;9.25;8.00;6.50
80289;PMS7003;69592;44.804;-0.550;2024-03-08T07:41:15;8.00;8.00;6.00
80289;PMS7003;69592;44.804;-0.550;2024-03-08T07:43:41;5.75;5.75;5.00
80289;PMS7003;69592;44.804;-0.550;2024-03-08T07:46:06;6.50;6.00;5.00
80289;PMS7003;69592;44.804;-0.550;2024-03-08T07:48:34;8.00;8.00;5.00
80289;PMS7003;69592;44.804;-0.550;2024-03-08T07:51:01;5.75;4.25;3.50
80289;PMS7003;69592;44.804;-0.550;2024-03-08T07:53:27;8.00;4.00;4.00
80289;PMS7003;69592;44.804;-0.550;2024-03-08T07:55:53;4.00;1.25;1.25
80289;PMS7003;69592;44.804;-0.550;2024-03-08T07:58:18;5.50;5.50;4.75
80289;PMS7003;69592;44.804;-0.550;2024-03-08T08:00:43;5.25;4.00;4.00
80289;PMS7003;69592;44.804;-0.550;2024-03-08T08:03:08;5.00;5.00;2.00
80289;PMS7003;69592;44.804;-0.550;2024-03-08T08:05:34;4.00;2.00;2.00
80289;PMS7003;69592;44.804;-0.550;2024-03-08T08:08:02;4.00;1.25;1.00
80289;PMS7003;69592;44.804;-0.550;2024-03-08T08:10:31;5.00;5.00;4.00
80289;PMS7003;69592;44.804;-0.550;2024-03-08T08:12:57;7.00;7.00;4.75
80289;PMS7003;69592;44.804;-0.550;2024-03-08T08:15:22;5.25;4.00;4.00
80289;PMS7003;69592;44.804;-0.550;2024-03-08T08:17:48;5.25;5.25;4.25
80289;PMS7003;69592;44.804;-0.550;2024-03-08T08:20:13;4.50;4.00;2.00
80289;PMS7003;69592;44.804;-0.550;2024-03-08T08:22:39;4.75;4.75;4.00
80289;PMS7003;69592;44.804;-0.550;2024-03-08T08:25:05;4.00;4.00;4.00
80289;PMS7003;69592;44.804;-0.550;2024-03-08T08:27:30;2.00;2.00;1.50
80289;PMS7003;69592;44.804;-0.550;2024-03-08T08:29:55;6.00;4.50;4.00
80289;PMS7003;69592;44.804;-0.550;2024-03-08T08:32:24;5.75;5.75;4.50
80289;PMS7003;69592;44.804;-0.550;2024-03-08T08:34:49;4.50;4.50;4.00
80289;PMS7003;69592;44.804;-0.550;2024-03-08T08:37:14;6.00;6.00;2.00
80289;PMS7003;69592;44.804;-0.550;2024-03-08T08:39:41;2.00;1.50;1.25
80289;PMS7003;69592;44.804;-0.550;2024-03-08T08:42:06;5.50;4.25;2.00
80289;PMS7003;69592;44.804;-0.550;2024-03-08T08:44:34;2.50;0.25;0.25
80289;PMS7003;69592;44.804;-0.550;2024-03-08T08:47:00;4.50;4.50;3.00
80289;PMS7003;69592;44.804;-0.550;2024-03-08T08:49:25;2.50;2.50;1.50
80289;PMS7003;69592;44.804;-0.550;2024-03-08T08:51:51;2.00;2.00;2.00
80289;PMS7003;69592;44.804;-0.550;2024-03-08T08:54:16;5.00;5.00;4.00
80289;PMS7003;69592;44.804;-0.550;2024-03-08T08:56:42;2.00;2.00;2.00
80289;PMS7003;69592;44.804;-0.550;2024-03-08T08:59:09;4.00;4.00;4.00
80289;PMS7003;69592;44.804;-0.550;2024-03-08T09:01:34;5.50;4.00;4.00
80289;PMS7003;69592;44.804;-0.550;2024-03-08T09:03:59;3.00;3.00;1.75
80289;PMS7003;69592;44.804;-0.550;2024-03-08T09:06:24;4.25;4.25;2.00
80289;PMS7003;69592;44.804;-0.550;2024-03-08T09:08:50;5.50;5.00;2.50
80289;PMS7003;69592;44.804;-0.550;2024-03-08T09:11:16;2.00;1.75;1.00
80289;PMS7003;69592;44.804;-0.550;2024-03-08T09:13:43;4.75;4.75;2.00
80289;PMS7003;69592;44.804;-0.550;2024-03-08T09:16:09;4.00;4.00;2.50
80289;PMS7003;69592;44.804;-0.550;2024-03-08T09:18:35;2.50;2.50;2.00
80289;PMS7003;69592;44.804;-0.550;2024-03-08T09:21:00;2.25;1.00;1.00
80289;PMS7003;69592;44.804;-0.550;2024-03-08T09:23:26;3.25;3.25;2.00
80289;PMS7003;69592;44.804;-0.550;2024-03-08T09:25:55;5.75;4.25;4.00
80289;PMS7003;69592;44.804;-0.550;2024-03-08T09:28:20;7.50;4.50;3.00
80289;PMS7003;69592;44.804;-0.550;2024-03-08T09:30:45;9.75;6.00;5.00
80289;PMS7003;69592;44.804;-0.550;2024-03-08T09:33:11;4.00;4.00;4.00
80289;PMS7003;69592;44.804;-0.550;2024-03-08T09:35:36;5.00;5.00;4.00
80289;PMS7003;69592;44.804;-0.550;2024-03-08T09:38:01;5.00;5.00;4.25
80289;PMS7003;69592;44.804;-0.550;2024-03-08T09:40:28;4.75;4.75;4.00
80289;PMS7003;69592;44.804;-0.550;2024-03-08T09:42:53;8.50;6.00;5.00
80289;PMS7003;69592;44.804;-0.550;2024-03-08T09:45:20;2.00;2.00;1.00
80289;PMS7003;69592;44.804;-0.550;2024-03-08T09:47:49;6.00;5.00;5.00
80289;PMS7003;69592;44.804;-0.550;2024-03-08T09:50:15;6.00;6.00;5.00
80289;PMS7003;69592;44.804;-0.550;2024-03-08T09:52:42;4.25;4.25;3.75
80289;PMS7003;69592;44.804;-0.550;2024-03-08T09:55:10;6.75;6.75;4.75
80289;PMS7003;69592;44.804;-0.550;2024-03-08T09:57:43;6.00;5.25;4.00
80289;PMS7003;69592;44.804;-0.550;2024-03-08T10:00:28;5.25;5.00;5.00
80289;PMS7003;69592;44.804;-0.550;2024-03-08T10:02:53;4.50;4.25;4.00
80289;PMS7003;69592;44.804;-0.550;2024-03-08T10:05:18;2.00;2.00;2.00
80289;PMS7003;69592;44.804;-0.550;2024-03-08T10:07:44;5.50;4.25;2.00
80289;PMS7003;69592;44.804;-0.550;2024-03-08T10:10:09;8.00;5.50;2.75
80289;PMS7003;69592;44.804;-0.550;2024-03-08T10:12:37;4.50;4.00;2.00
80289;PMS7003;69592;44.804;-0.550;2024-03-08T10:15:05;7.50;5.25;4.25
80289;PMS7003;69592;44.804;-0.550;2024-03-08T10:17:30;4.50;4.50;3.00
80289;PMS7003;69592;44.804;-0.550;2024-03-08T10:19:57;2.50;2.50;2.00
80289;PMS7003;69592;44.804;-0.550;2024-03-08T10:22:24;1.75;1.75;1.25
80289;PMS7003;69592;44.804;-0.550;2024-03-08T10:24:50;2.00;1.50;1.00
80289;PMS7003;69592;44.804;-0.550;2024-03-08T10:27:18;1.50;1.50;1.50
80289;PMS7003;69592;44.804;-0.550;2024-03-08T10:29:46;1.00;1.00;1.00
80289;PMS7003;69592;44.804;-0.550;2024-03-08T10:32:12;2.00;2.00;1.00
80289;PMS7003;69592;44.804;-0.550;2024-03-08T10:34:38;0.00;0.00;0.00
80289;PMS7003;69592;44.804;-0.550;2024-03-08T10:37:03;2.00;2.00;2.00
80289;PMS7003;69592;44.804;-0.550;2024-03-08T10:39:31;2.25;1.00;1.00
80289;PMS7003;69592;44.804;-0.550;2024-03-08T10:41:59;1.50;1.50;1.50
80289;PMS7003;69592;44.804;-0.550;2024-03-08T10:49:25;6.25;4.75;3.00
80289;PMS7003;69592;44.804;-0.550;2024-03-08T10:51:50;5.75;5.00;3.25
80289;PMS7003;69592;44.804;-0.550;2024-03-08T10:54:17;0.50;0.00;0.00
80289;PMS7003;69592;44.804;-0.550;2024-03-08T10:56:43;4.25;4.25;3.25
80289;PMS7003;69592;44.804;-0.550;2024-03-08T10:59:09;5.00;5.00;3.25
80289;PMS7003;69592;44.804;-0.550;2024-03-08T11:01:35;5.00;5.00;3.25
80289;PMS7003;69592;44.804;-0.550;2024-03-08T11:04:04;5.00;5.00;4.50
80289;PMS7003;69592;44.804;-0.550;2024-03-08T11:06:30;5.00;5.00;3.25
80289;PMS7003;69592;44.804;-0.550;2024-03-08T11:08:56;4.75;3.50;2.25
80289;PMS7003;69592;44.804;-0.550;2024-03-08T11:13:57;6.75;5.00;4.50
80289;PMS7003;69592;44.804;-0.550;2024-03-08T11:19:06;3.75;3.75;3.75
80289;PMS7003;69592;44.804;-0.550;2024-03-08T11:21:32;5.50;5.00;3.25
80289;PMS7003;69592;44.804;-0.550;2024-03-08T11:24:02;3.00;3.00;2.50
80289;PMS7003;69592;44.804;-0.550;2024-03-08T11:26:30;6.75;5.75;5.00
80289;PMS7003;69592;44.804;-0.550;2024-03-08T11:29:32;6.75;5.50;4.00
80289;PMS7003;69592;44.804;-0.550;2024-03-08T11:31:41;6.00;5.00;3.25
80289;PMS7003;69592;44.804;-0.550;2024-03-08T11:34:16;1.00;1.00;1.00
80289;PMS7003;69592;44.804;-0.550;2024-03-08T11:36:42;3.50;2.00;1.75
80289;PMS7003;69592;44.804;-0.550;2024-03-08T11:39:07;2.00;2.00;2.00
80289;PMS7003;69592;44.804;-0.550;2024-03-08T11:41:39;5.00;4.75;2.75
80289;PMS7003;69592;44.804;-0.550;2024-03-08T11:44:06;5.00;5.00;3.25
80289;PMS7003;69592;44.804;-0.550;2024-03-08T11:46:32;1.00;1.00;1.00
80289;PMS7003;69592;44.804;-0.550;2024-03-08T11:48:57;6.25;6.25;5.25
80289;PMS7003;69592;44.804;-0.550;2024-03-08T11:51:22;8.00;5.50;3.50
80289;PMS7003;69592;44.804;-0.550;2024-03-08T11:53:48;2.00;2.00;2.00
80289;PMS7003;69592;44.804;-0.550;2024-03-08T11:56:15;2.25;2.25;2.00
80289;PMS7003;69592;44.804;-0.550;2024-03-08T11:58:40;2.00;2.00;2.00
80289;PMS7003;69592;44.804;-0.550;2024-03-08T12:01:06;2.00;2.00;1.75
80289;PMS7003;69592;44.804;-0.550;2024-03-08T12:03:32;2.25;2.25;2.00
80289;PMS7003;69592;44.804;-0.550;2024-03-08T12:05:58;3.00;3.00;2.75
80289;PMS7003;69592;44.804;-0.550;2024-03-08T12:08:24;1.75;1.75;1.00
80289;PMS7003;69592;44.804;-0.550;2024-03-08T12:10:53;0.50;0.50;0.25
80289;PMS7003;69592;44.804;-0.550;2024-03-08T12:13:20;1.25;1.25;1.25
80289;PMS7003;69592;44.804;-0.550;2024-03-08T12:15:45;5.00;3.00;3.00
80289;PMS7003;69592;44.804;-0.550;2024-03-08T12:18:11;2.00;2.00;2.00
80289;PMS7003;69592;44.804;-0.550;2024-03-08T12:20:37;3.25;2.75;2.00
80289;PMS7003;69592;44.804;-0.550;2024-03-08T12:23:04;3.75;2.00;2.00
80289;PMS7003;69592;44.804;-0.550;2024-03-08T12:25:31;3.00;2.00;2.00
80289;PMS7003;69592;44.804;-0.550;2024-03-08T12:27:56;6.00;6.00;4.50
80289;PMS7003;69592;44.804;-0.550;2024-03-08T12:30:26;4.75;4.75;2.75
80289;PMS7003;69592;44.804;-0.550;2024-03-08T12:35:22;2.00;2.00;1.00
80289;PMS7003;69592;44.804;-0.550;2024-03-08T12:37:52;2.00;2.00;2.00
80289;PMS7003;69592;44.804;-0.550;2024-03-08T12:40:18;2.00;2.00;2.00
80289;PMS7003;69592;44.804;-0.550;2024-03-08T12:42:44;2.00;2.00;1.00
80289;PMS7003;69592;44.804;-0.550;2024-03-08T12:45:12;3.00;3.00;2.50
80289;PMS7003;69592;44.804;-0.550;2024-03-08T12:47:37;1.75;1.75;1.00
80289;PMS7003;69592;44.804;-0.550;2024-03-08T12:50:03;2.00;2.00;1.00
80289;PMS7003;69592;44.804;-0.550;2024-03-08T12:52:28;2.00;1.00;1.00
80289;PMS7003;69592;44.804;-0.550;2024-03-08T12:54:55;3.75;3.00;2.50
80289;PMS7003;69592;44.804;-0.550;2024-03-08T12:57:20;2.00;2.00;2.00
80289;PMS7003;69592;44.804;-0.550;2024-03-08T12:59:45;3.50;3.00;2.75
80289;PMS7003;69592;44.804;-0.550;2024-03-08T13:02:11;3.00;3.00;3.00
80289;PMS7003;69592;44.804;-0.550;2024-03-08T13:04:39;5.00;5.00;5.00
80289;PMS7003;69592;44.804;-0.550;2024-03-08T13:07:04;6.25;5.25;4.00
80289;PMS7003;69592;44.804;-0.550;2024-03-08T13:09:29;5.75;3.00;3.00
80289;PMS7003;69592;44.804;-0.550;2024-03-08T13:11:56;6.25;6.25;5.00
80289;PMS7003;69592;44.804;-0.550;2024-03-08T13:14:23;8.25;7.75;5.75
80289;PMS7003;69592;44.804;-0.550;2024-03-08T13:16:49;7.00;6.00;5.00
80289;PMS7003;69592;44.804;-0.550;2024-03-08T13:19:14;5.00;2.25;2.00
80289;PMS7003;69592;44.804;-0.550;2024-03-08T13:21:39;1.50;1.50;1.00
80289;PMS7003;69592;44.804;-0.550;2024-03-08T13:24:04;3.00;3.00;3.00
80289;PMS7003;69592;44.804;-0.550;2024-03-08T13:26:30;3.00;3.00;2.25
80289;PMS7003;69592;44.804;-0.550;2024-03-08T13:28:57;3.00;3.00;2.25
80289;PMS7003;69592;44.804;-0.550;2024-03-08T13:31:23;2.00;2.00;1.75
80289;PMS7003;69592;44.804;-0.550;2024-03-08T13:33:48;2.00;2.00;2.00
80289;PMS7003;69592;44.804;-0.550;2024-03-08T13:36:14;1.00;1.00;1.00
80289;PMS7003;69592;44.804;-0.550;2024-03-08T13:38:46;1.00;1.00;1.00
80289;PMS7003;69592;44.804;-0.550;2024-03-08T13:41:12;1.33;1.33;1.33
80289;PMS7003;69592;44.804;-0.550;2024-03-08T13:43:43;1.00;1.00;1.00
80289;PMS7003;69592;44.804;-0.550;2024-03-08T13:46:08;1.25;1.25;1.00
80289;PMS7003;69592;44.804;-0.550;2024-03-08T13:48:35;2.50;2.00;2.00
80289;PMS7003;69592;44.804;-0.550;2024-03-08T13:51:02;2.75;1.50;1.00
80289;PMS7003;69592;44.804;-0.550;2024-03-08T13:53:27;2.00;2.00;1.75
80289;PMS7003;69592;44.804;-0.550;2024-03-08T13:55:53;3.00;1.00;0.50
80289;PMS7003;69592;44.804;-0.550;2024-03-08T13:58:18;1.67;0.67;0.00
80289;PMS7003;69592;44.804;-0.550;2024-03-08T14:00:45;5.00;3.00;2.00
80289;PMS7003;69592;44.804;-0.550;2024-03-08T14:03:12;3.00;2.00;2.00
80289;PMS7003;69592;44.804;-0.550;2024-03-08T14:05:40;3.50;1.50;1.00
80289;PMS7003;69592;44.804;-0.550;2024-03-08T14:08:07;2.00;2.00;1.75
80289;PMS7003;69592;44.804;-0.550;2024-03-08T14:10:33;3.00;2.25;1.75
80289;PMS7003;69592;44.804;-0.550;2024-03-08T14:12:59;5.00;5.00;4.50
80289;PMS7003;69592;44.804;-0.550;2024-03-08T14:15:24;1.75;1.75;1.50
80289;PMS7003;69592;44.804;-0.550;2024-03-08T14:17:53;1.00;1.00;1.00